Time;durP1;ratioP1;P1;durP2;ratioP2;P2;SDS_P1;SDS_P2;PMS_P1;PMS_P2;Temp;Humidity;BMP_temperature;BMP_pressure;BME280_temperature;BME280_humidity;BME280_pressure;Samples;Min_cycle;Max_cycle;Signal;HPM_P1;HPM_P2
2022/01/09 00:01:28;;;;;;;8.80;7.97;;;4.60;99.90;;;;;;4962145;28;88113;-39
2022/01/09 00:03:54;;;;;;;8.23;7.57;;;4.60;99.90;;;;;;4961686;28;87688;-38
2022/01/09 00:06:19;;;;;;;6.97;6.38;;;4.60;99.90;;;;;;4962089;28;91075;-39
2022/01/09 00:08:45;;;;;;;8.35;7.55;;;4.70;99.90;;;;;;4961889;28;89649;-43
2022/01/09 00:11:12;;;;;;;8.65;7.65;;;4.60;99.90;;;;;;4962633;28;87817;-42
2022/01/09 00:13:37;;;;;;;7.47;6.72;;;4.60;99.90;;;;;;4961686;28;88132;-46
2022/01/09 00:16:03;;;;;;;7.78;7.07;;;4.60;99.90;;;;;;4961990;28;90763;-41
2022/01/09 00:18:29;;;;;;;8.50;7.70;;;4.60;99.90;;;;;;4961715;28;91889;-44
2022/01/09 00:20:55;;;;;;;7.65;7.00;;;4.60;99.90;;;;;;4962665;28;90408;-45
2022/01/09 00:23:20;;;;;;;8.77;8.07;;;4.60;99.90;;;;;;4961563;28;90116;-46
2022/01/09 00:25:46;;;;;;;8.55;7.85;;;4.60;99.90;;;;;;4962563;28;90128;-35
2022/01/09 00:28:11;;;;;;;7.50;6.80;;;4.60;99.90;;;;;;4961577;28;89739;-41
2022/01/09 00:30:37;;;;;;;8.20;7.45;;;4.60;99.90;;;;;;4961938;28;87568;-41
2022/01/09 00:33:05;;;;;;;9.10;8.30;;;4.60;99.90;;;;;;4961861;28;90374;-46
2022/01/09 00:35:30;;;;;;;8.47;7.60;;;4.60;99.90;;;;;;4961373;28;90188;-41
2022/01/09 00:37:56;;;;;;;8.63;7.90;;;4.60;99.90;;;;;;4961917;28;90216;-43
2022/01/09 00:40:21;;;;;;;8.10;7.40;;;4.70;99.90;;;;;;4961830;28;88732;-33
2022/01/09 00:42:47;;;;;;;8.25;7.55;;;4.60;99.90;;;;;;4962087;28;88665;-42
2022/01/09 00:45:13;;;;;;;9.13;8.32;;;4.60;99.90;;;;;;4961360;28;91296;-42
2022/01/09 00:47:39;;;;;;;10.43;8.30;;;4.60;99.90;;;;;;4960695;28;89415;-45
2022/01/09 00:50:05;;;;;;;8.70;7.88;;;4.60;99.90;;;;;;4962508;28;89354;-37
2022/01/09 00:52:31;;;;;;;8.52;7.82;;;4.60;99.90;;;;;;4961129;28;88301;-40
2022/01/09 00:54:57;;;;;;;7.35;6.75;;;4.50;99.90;;;;;;4962055;28;90067;-37
2022/01/09 00:57:23;;;;;;;9.00;8.27;;;4.50;99.90;;;;;;4960811;28;89529;-40
2022/01/09 00:59:49;;;;;;;8.70;7.82;;;4.50;99.90;;;;;;4961490;28;87553;-44
2022/01/09 01:02:14;;;;;;;9.20;8.40;;;4.50;99.90;;;;;;4960916;28;88397;-46
2022/01/09 01:04:40;;;;;;;8.93;8.02;;;4.50;99.90;;;;;;4960818;28;89232;-43
2022/01/09 01:07:06;;;;;;;10.93;7.32;;;4.50;99.90;;;;;;4963937;28;89633;-36
2022/01/09 01:09:32;;;;;;;9.02;8.23;;;4.50;99.90;;;;;;4965904;28;88426;-42
2022/01/09 01:11:58;;;;;;;8.68;7.78;;;4.50;99.90;;;;;;4962624;28;90051;-43
2022/01/09 01:14:26;;;;;;;7.38;6.78;;;4.50;99.90;;;;;;4948633;28;89206;-44
2022/01/09 01:16:52;;;;;;;8.10;7.40;;;4.50;99.90;;;;;;4949308;28;89741;-43
2022/01/09 01:19:18;;;;;;;9.48;8.77;;;4.60;99.90;;;;;;4967097;28;89216;-40
2022/01/09 01:21:43;;;;;;;8.02;7.32;;;4.60;99.90;;;;;;4967851;28;87646;-43
2022/01/09 01:24:09;;;;;;;8.27;7.47;;;4.60;99.90;;;;;;4967907;28;89908;-42
2022/01/09 01:26:38;;;;;;;8.15;7.57;;;4.50;99.90;;;;;;4949680;28;90566;-41
2022/01/09 01:29:04;;;;;;;8.50;7.70;;;4.60;99.90;;;;;;4971296;28;89574;-43
2022/01/09 01:31:33;;;;;;;10.98;8.38;;;4.60;99.90;;;;;;4972483;28;88212;-43
2022/01/09 01:33:59;;;;;;;8.95;8.25;;;4.50;99.90;;;;;;4952744;28;90020;-36
2022/01/09 01:36:25;;;;;;;10.65;8.65;;;4.60;99.90;;;;;;4967518;28;89344;-45
2022/01/09 01:38:50;;;;;;;8.32;7.53;;;4.50;99.90;;;;;;4968728;28;89943;-41
2022/01/09 01:41:19;;;;;;;8.52;7.72;;;4.50;99.90;;;;;;4934979;28;88661;-40
2022/01/09 01:43:46;;;;;;;8.75;7.88;;;4.50;99.90;;;;;;4969120;28;89107;-40
2022/01/09 01:46:43;;;;;;;9.27;8.57;;;4.50;99.90;;;;;;4936702;28;87928;-37
2022/01/09 01:49:12;;;;;;;12.10;9.93;;;4.50;99.90;;;;;;4968621;28;89512;-43
2022/01/09 02:00:07;;;;;;;9.52;8.70;;;4.50;99.90;;;;;;4981084;28;89511;-42
2022/01/09 02:02:33;;;;;;;10.05;9.10;;;4.40;99.90;;;;;;4962996;28;88427;-35
2022/01/09 02:04:58;;;;;;;11.00;10.05;;;4.40;99.90;;;;;;4962576;28;89800;-40
2022/01/09 02:07:25;;;;;;;10.75;9.85;;;4.40;99.90;;;;;;4962228;28;89565;-37
2022/01/09 02:09:51;;;;;;;10.43;9.43;;;4.40;99.90;;;;;;4946524;28;89595;-41
2022/01/09 02:12:17;;;;;;;10.77;9.60;;;4.40;99.90;;;;;;4963505;28;90081;-43
2022/01/09 02:14:46;;;;;;;10.65;9.55;;;4.50;99.90;;;;;;4964352;28;89078;-38
2022/01/09 02:17:18;;;;;;;11.52;10.52;;;4.40;99.90;;;;;;4966100;28;90194;-40
2022/01/09 02:19:55;;;;;;;11.48;10.38;;;4.40;99.90;;;;;;4949347;28;90250;-43
2022/01/09 02:29:48;;;;;;;13.10;11.80;;;4.40;99.90;;;;;;4965022;28;89537;-42
2022/01/09 02:32:16;;;;;;;12.07;11.05;;;4.40;99.90;;;;;;4962714;28;89625;-41
2022/01/09 02:34:50;;;;;;;13.07;12.07;;;4.40;99.90;;;;;;4962785;28;88713;-40
2022/01/09 02:37:15;;;;;;;15.38;13.93;;;4.40;99.90;;;;;;4962563;28;88595;-35
2022/01/09 02:39:41;;;;;;;15.25;13.75;;;4.40;99.90;;;;;;4963835;28;91623;-43
2022/01/09 02:42:29;;;;;;;15.55;14.18;;;4.40;99.90;;;;;;4965144;28;90863;-36
2022/01/09 02:48:57;;;;;;;17.73;14.13;;;4.40;99.90;;;;;;4962267;28;89874;-35
2022/01/09 02:51:24;;;;;;;17.13;15.48;;;4.50;99.90;;;;;;4962621;28;90459;-42
2022/01/09 02:53:56;;;;;;;17.48;15.68;;;4.40;99.90;;;;;;4962587;28;89782;-42
2022/01/09 02:56:22;;;;;;;17.50;15.65;;;4.40;99.90;;;;;;4961705;28;89358;-40
2022/01/09 02:58:47;;;;;;;20.88;18.67;;;4.40;99.90;;;;;;4962131;28;92217;-36
2022/01/09 03:01:13;;;;;;;18.35;16.67;;;4.40;99.90;;;;;;4961869;28;89544;-41
2022/01/09 03:03:39;;;;;;;19.90;18.20;;;4.40;99.90;;;;;;4962368;28;89598;-35
2022/01/09 03:06:04;;;;;;;20.63;18.75;;;4.40;99.90;;;;;;4962006;28;88835;-44
2022/01/09 03:08:30;;;;;;;18.67;16.88;;;4.40;99.90;;;;;;4962322;28;88132;-38
2022/01/09 03:10:56;;;;;;;19.75;17.83;;;4.40;99.90;;;;;;4962062;28;90637;-40
2022/01/09 03:13:29;;;;;;;19.27;17.27;;;4.40;99.90;;;;;;4963238;28;89576;-39
2022/01/09 03:19:35;;;;;;;16.77;14.93;;;4.50;99.90;;;;;;4965328;28;88440;-41
2022/01/09 03:22:01;;;;;;;16.95;15.35;;;4.50;99.90;;;;;;4961753;28;97830;-41
2022/01/09 03:24:26;;;;;;;17.10;15.50;;;4.50;99.90;;;;;;4960653;28;90188;-37
2022/01/09 03:26:52;;;;;;;18.65;16.83;;;4.50;99.90;;;;;;4962133;28;89158;-43
2022/01/09 03:29:17;;;;;;;15.25;13.77;;;4.50;99.90;;;;;;4961899;28;91279;-36
2022/01/09 03:31:43;;;;;;;16.25;14.68;;;4.60;99.90;;;;;;4962301;28;90315;-38
2022/01/09 03:34:08;;;;;;;16.05;14.45;;;4.60;99.90;;;;;;4943189;28;91170;-40
2022/01/09 03:36:34;;;;;;;16.27;14.68;;;4.60;99.90;;;;;;4960319;28;91087;-42
2022/01/09 03:38:59;;;;;;;18.65;14.43;;;4.60;99.90;;;;;;4944099;28;89601;-40
2022/01/09 03:41:26;;;;;;;17.23;14.23;;;4.60;99.90;;;;;;4961575;28;88827;-43
2022/01/09 03:43:52;;;;;;;19.27;14.55;;;4.60;99.90;;;;;;4944497;28;90386;-43
2022/01/09 03:46:18;;;;;;;15.88;13.40;;;4.70;99.90;;;;;;4961134;28;89747;-40
2022/01/09 03:48:43;;;;;;;18.25;13.93;;;4.60;99.90;;;;;;4961489;28;89446;-39
2022/01/09 03:51:10;;;;;;;14.88;12.70;;;4.70;99.90;;;;;;4961565;28;90066;-39
2022/01/09 03:53:37;;;;;;;10.40;8.75;;;4.80;99.90;;;;;;4960775;28;90118;-37
2022/01/09 03:56:03;;;;;;;12.00;10.73;;;4.80;99.90;;;;;;4963263;28;89877;-44
2022/01/09 03:58:28;;;;;;;12.43;8.85;;;4.90;99.90;;;;;;4961228;28;89716;-38
2022/01/09 04:00:54;;;;;;;13.32;9.15;;;5.00;99.90;;;;;;4961281;28;90466;-40
2022/01/09 04:03:20;;;;;;;15.65;7.85;;;5.00;99.90;;;;;;4962252;28;90052;-40
2022/01/09 04:05:45;;;;;;;16.65;8.18;;;5.00;99.90;;;;;;4962615;28;89999;-35
2022/01/09 04:08:11;;;;;;;9.80;7.20;;;5.00;99.90;;;;;;4962768;28;88639;-40
2022/01/09 04:10:41;;;;;;;14.65;7.15;;;4.90;99.90;;;;;;4944359;28;90790;-41
2022/01/09 04:13:07;;;;;;;14.30;7.10;;;5.00;99.90;;;;;;4961797;28;89136;-38
2022/01/09 04:15:33;;;;;;;11.00;5.65;;;5.00;99.90;;;;;;4962251;28;89375;-34
2022/01/09 04:18:00;;;;;;;16.05;6.03;;;5.00;99.90;;;;;;4962218;28;87645;-38
2022/01/09 04:20:30;;;;;;;13.23;6.40;;;5.10;99.90;;;;;;4944489;28;90442;-37
2022/01/09 04:22:57;;;;;;;33.47;8.35;;;5.10;99.90;;;;;;4961338;28;90140;-41
2022/01/09 04:25:23;;;;;;;22.05;6.65;;;5.20;99.90;;;;;;4961412;28;89180;-38
2022/01/09 04:27:50;;;;;;;20.02;6.18;;;5.20;99.90;;;;;;4961934;28;89700;-37
2022/01/09 04:30:16;;;;;;;33.90;8.73;;;5.20;99.90;;;;;;4962219;28;89185;-42
2022/01/09 04:32:42;;;;;;;28.63;7.80;;;5.30;99.90;;;;;;4961342;28;89740;-45
2022/01/09 04:35:08;;;;;;;28.77;9.23;;;5.40;99.90;;;;;;4961792;28;88653;-42
2022/01/09 04:37:35;;;;;;;28.65;8.13;;;5.40;99.90;;;;;;4961738;28;90098;-36
2022/01/09 04:40:01;;;;;;;20.35;7.47;;;5.50;99.90;;;;;;4944388;28;90353;-42
2022/01/09 04:42:38;;;;;;;40.58;9.02;;;5.50;99.90;;;;;;4962069;28;88536;-40
2022/01/09 04:45:04;;;;;;;29.98;7.43;;;5.60;99.90;;;;;;4962088;28;88038;-40
2022/01/09 04:47:30;;;;;;;29.38;7.70;;;5.60;99.90;;;;;;4960713;28;88286;-35
2022/01/09 04:49:56;;;;;;;30.02;8.05;;;5.70;99.90;;;;;;4961921;28;90223;-39
2022/01/09 04:52:27;;;;;;;23.20;6.95;;;5.70;99.90;;;;;;4943774;28;89461;-36
2022/01/09 04:54:52;;;;;;;42.35;8.95;;;5.80;99.90;;;;;;4961752;28;88286;-39
2022/01/09 04:57:18;;;;;;;21.63;7.35;;;5.80;99.90;;;;;;4961510;28;88486;-39
2022/01/09 04:59:43;;;;;;;35.35;8.63;;;5.80;99.90;;;;;;4961454;28;90697;-41
2022/01/09 05:02:09;;;;;;;35.05;7.82;;;5.90;99.90;;;;;;4961379;28;90157;-38
2022/01/09 05:04:35;;;;;;;28.17;6.75;;;5.90;99.90;;;;;;4961406;28;89139;-40
2022/01/09 05:07:00;;;;;;;25.50;7.65;;;5.90;99.90;;;;;;4961626;28;88507;-42
2022/01/09 05:09:26;;;;;;;32.22;9.45;;;5.80;99.90;;;;;;4961318;28;90123;-38
2022/01/09 05:11:51;;;;;;;32.03;8.57;;;5.90;99.90;;;;;;4960815;28;90577;-41
2022/01/09 05:14:17;;;;;;;28.70;7.55;;;5.90;99.90;;;;;;4961687;28;89410;-39
2022/01/09 05:16:44;;;;;;;22.65;7.70;;;5.80;99.90;;;;;;4961677;28;87658;-38
2022/01/09 05:19:18;;;;;;;35.53;7.07;;;5.80;99.90;;;;;;4961275;28;90288;-39
2022/01/09 05:21:44;;;;;;;43.50;8.75;;;5.80;99.90;;;;;;4961858;28;89558;-40
2022/01/09 05:24:10;;;;;;;27.33;6.43;;;5.80;99.90;;;;;;4961108;28;90209;-38
2022/01/09 05:26:35;;;;;;;24.80;6.70;;;5.80;99.90;;;;;;4961533;28;89106;-44
2022/01/09 05:29:01;;;;;;;23.17;7.47;;;5.80;99.90;;;;;;4961184;28;90267;-40
2022/01/09 05:31:26;;;;;;;29.02;6.18;;;5.80;99.90;;;;;;4961155;28;90150;-42
2022/01/09 05:33:52;;;;;;;26.73;6.70;;;5.90;99.90;;;;;;4961835;28;90145;-40
2022/01/09 05:36:18;;;;;;;21.70;6.97;;;5.90;99.90;;;;;;4960824;28;89056;-35
2022/01/09 05:38:44;;;;;;;26.30;5.35;;;5.90;99.90;;;;;;4944121;28;91048;-40
2022/01/09 05:41:09;;;;;;;39.08;8.02;;;5.90;99.90;;;;;;4960725;28;90445;-39
2022/01/09 05:43:35;;;;;;;36.25;7.22;;;5.80;99.90;;;;;;4961017;28;88641;-39
2022/01/09 05:46:01;;;;;;;21.60;7.47;;;5.90;99.90;;;;;;4961678;28;90109;-37
2022/01/09 05:48:27;;;;;;;22.40;5.97;;;5.80;99.90;;;;;;4961244;28;91448;-38
2022/01/09 05:50:52;;;;;;;23.00;6.65;;;5.80;99.90;;;;;;4961094;28;89693;-39
2022/01/09 05:53:18;;;;;;;25.88;6.65;;;5.80;99.90;;;;;;4960214;28;88054;-40
2022/01/09 05:55:44;;;;;;;22.65;6.88;;;5.80;99.90;;;;;;4961309;28;88086;-36
2022/01/09 05:58:09;;;;;;;27.38;6.57;;;5.70;99.90;;;;;;4961036;28;90234;-35
2022/01/09 06:00:35;;;;;;;24.33;5.30;;;5.70;99.90;;;;;;4962575;28;89764;-41
2022/01/09 06:03:00;;;;;;;25.67;5.90;;;5.70;99.90;;;;;;4964142;28;87919;-38
2022/01/09 06:05:26;;;;;;;31.92;6.18;;;5.70;99.90;;;;;;4963399;28;88318;-38
2022/01/09 06:07:51;;;;;;;22.13;5.90;;;5.60;99.90;;;;;;4964378;28;90343;-34
2022/01/09 06:10:17;;;;;;;19.08;5.32;;;5.60;99.90;;;;;;4963557;28;90558;-42
2022/01/09 06:12:43;;;;;;;19.83;5.82;;;5.60;99.90;;;;;;4964846;28;87964;-39
2022/01/09 06:15:09;;;;;;;23.80;5.70;;;5.60;99.90;;;;;;4964053;28;89980;-41
2022/01/09 06:17:39;;;;;;;18.63;5.32;;;5.50;99.90;;;;;;4950043;28;90896;-37
2022/01/09 06:20:06;;;;;;;24.30;5.88;;;5.50;99.90;;;;;;4942834;28;91386;-36
2022/01/09 06:22:32;;;;;;;19.45;4.18;;;5.50;99.90;;;;;;4944038;28;87577;-41
2022/01/09 06:24:58;;;;;;;25.95;5.47;;;5.50;99.90;;;;;;4944517;28;89507;-38
2022/01/09 06:27:23;;;;;;;19.50;6.38;;;5.40;99.90;;;;;;4943812;28;90095;-45
2022/01/09 06:29:49;;;;;;;22.70;5.03;;;5.40;99.90;;;;;;4943363;28;89847;-35
2022/01/09 06:32:15;;;;;;;23.40;5.40;;;5.40;99.90;;;;;;4943566;28;89673;-35
2022/01/09 06:34:41;;;;;;;21.52;6.03;;;5.40;99.90;;;;;;4943067;28;89844;-40
2022/01/09 06:37:07;;;;;;;20.80;5.72;;;5.40;99.90;;;;;;4944202;28;90816;-35
2022/01/09 06:39:33;;;;;;;24.65;5.22;;;5.40;99.90;;;;;;4943091;28;89879;-42
2022/01/09 06:41:59;;;;;;;22.42;5.97;;;5.40;99.90;;;;;;4944138;28;90649;-37
2022/01/09 06:44:24;;;;;;;20.10;4.78;;;5.40;99.90;;;;;;4943296;28;88436;-40
2022/01/09 06:46:50;;;;;;;28.23;5.40;;;5.30;99.90;;;;;;4944367;28;90473;-41
2022/01/09 06:49:16;;;;;;;17.42;4.68;;;5.30;99.90;;;;;;4942516;28;88499;-41
2022/01/09 06:51:42;;;;;;;19.92;4.88;;;5.30;99.90;;;;;;4943785;28;87679;-36
2022/01/09 06:54:08;;;;;;;23.27;5.35;;;5.30;99.90;;;;;;4943715;28;88675;-36
2022/01/09 06:56:34;;;;;;;19.15;4.93;;;5.40;99.90;;;;;;4943028;28;90183;-32
2022/01/09 06:58:59;;;;;;;23.85;4.97;;;5.30;99.90;;;;;;4943614;28;88993;-36
2022/01/09 07:01:25;;;;;;;26.20;5.70;;;5.30;99.90;;;;;;4942952;28;89635;-39
2022/01/09 07:03:50;;;;;;;25.25;5.90;;;5.30;99.90;;;;;;4942769;28;88192;-39
2022/01/09 07:06:16;;;;;;;18.15;5.57;;;5.30;99.90;;;;;;4943288;28;91621;-41
2022/01/09 07:08:42;;;;;;;14.48;4.07;;;5.30;99.90;;;;;;4942879;28;89967;-38
2022/01/09 07:11:07;;;;;;;16.45;5.43;;;5.40;99.90;;;;;;4943810;28;89119;-41
2022/01/09 07:13:33;;;;;;;27.65;5.03;;;5.40;99.90;;;;;;4942670;28;88154;-39
2022/01/09 07:15:59;;;;;;;17.58;5.43;;;5.40;99.90;;;;;;4943709;28;90277;-36
2022/01/09 07:18:25;;;;;;;14.70;4.72;;;5.30;99.90;;;;;;4941486;28;88956;-41
2022/01/09 07:20:50;;;;;;;18.75;5.72;;;5.30;99.90;;;;;;4943342;28;88466;-36
2022/01/09 07:23:16;;;;;;;18.83;6.43;;;5.30;99.90;;;;;;4943339;28;88374;-36
2022/01/09 07:25:42;;;;;;;27.83;5.85;;;5.30;99.90;;;;;;4943356;28;90262;-37
2022/01/09 07:28:08;;;;;;;13.85;5.45;;;5.30;99.90;;;;;;4943370;28;89740;-39
2022/01/09 07:30:33;;;;;;;16.70;4.72;;;5.30;99.90;;;;;;4925224;28;87996;-42
2022/01/09 07:32:59;;;;;;;19.15;5.15;;;5.30;99.90;;;;;;4942450;28;89399;-42
2022/01/09 07:35:25;;;;;;;17.27;4.30;;;5.30;99.90;;;;;;4942226;28;90382;-41
2022/01/09 07:37:50;;;;;;;10.55;4.13;;;5.30;99.90;;;;;;4942502;28;90108;-39
2022/01/09 07:40:17;;;;;;;16.63;5.18;;;5.30;99.90;;;;;;4943178;28;88339;-38
2022/01/09 07:42:42;;;;;;;12.82;4.28;;;5.30;99.90;;;;;;4942800;28;88991;-41
2022/01/09 07:45:09;;;;;;;17.55;5.13;;;5.30;99.90;;;;;;4942758;28;90181;-39
2022/01/09 07:47:35;;;;;;;13.70;5.10;;;5.20;99.90;;;;;;4943204;28;89768;-38
2022/01/09 07:50:02;;;;;;;12.43;4.18;;;5.20;99.90;;;;;;4941970;28;89588;-40
2022/01/09 07:52:28;;;;;;;18.65;5.40;;;5.20;99.90;;;;;;4887471;28;89074;-36
2022/01/09 07:54:54;;;;;;;17.67;5.50;;;5.20;99.90;;;;;;4945926;28;90768;-33
2022/01/09 07:57:20;;;;;;;15.00;4.93;;;5.20;99.90;;;;;;4942469;28;94134;-44
2022/01/09 07:59:45;;;;;;;13.65;3.88;;;5.10;99.90;;;;;;4942649;28;88765;-34
2022/01/09 08:02:11;;;;;;;13.73;4.65;;;5.10;99.90;;;;;;4942915;28;89955;-34
2022/01/09 08:04:37;;;;;;;16.63;4.60;;;5.10;99.90;;;;;;4941206;28;90248;-43
2022/01/09 08:07:02;;;;;;;10.73;3.17;;;5.10;99.90;;;;;;4942360;28;88473;-39
2022/01/09 08:09:28;;;;;;;9.75;4.38;;;5.10;99.90;;;;;;4958467;28;90057;-43
2022/01/09 08:11:54;;;;;;;9.48;3.72;;;5.00;99.90;;;;;;4962403;28;87669;-35
2022/01/09 08:14:19;;;;;;;10.18;3.60;;;5.00;99.90;;;;;;4961252;28;90126;-33
2022/01/09 08:16:45;;;;;;;9.55;3.58;;;5.00;99.90;;;;;;4962123;28;89623;-43
2022/01/09 08:19:10;;;;;;;8.50;2.53;;;5.00;99.90;;;;;;4960676;28;87842;-37
2022/01/09 08:21:36;;;;;;;8.40;3.45;;;5.00;99.90;;;;;;4960363;28;89379;-43
2022/01/09 08:24:02;;;;;;;10.10;3.47;;;5.00;99.90;;;;;;4960987;28;90245;-37
2022/01/09 08:26:27;;;;;;;8.15;3.40;;;5.00;99.90;;;;;;4960946;28;90235;-43
2022/01/09 08:28:54;;;;;;;7.65;3.60;;;5.10;99.90;;;;;;4962284;28;89847;-34
2022/01/09 08:31:20;;;;;;;9.30;3.15;;;5.10;99.90;;;;;;4962007;28;88837;-36
2022/01/09 08:33:46;;;;;;;11.82;3.00;;;5.10;99.90;;;;;;4962106;28;90284;-40
2022/01/09 08:36:13;;;;;;;15.88;3.40;;;5.00;99.90;;;;;;4953347;28;89666;-34
2022/01/09 08:38:40;;;;;;;13.25;3.65;;;5.00;99.90;;;;;;4952654;28;89394;-35
2022/01/09 08:41:06;;;;;;;12.27;3.28;;;5.00;99.90;;;;;;4955384;28;88100;-41
2022/01/09 08:43:31;;;;;;;7.38;3.38;;;5.00;99.90;;;;;;4956131;28;89004;-36
2022/01/09 08:45:58;;;;;;;6.50;2.83;;;5.00;99.90;;;;;;4955390;28;90617;-34
2022/01/09 08:48:24;;;;;;;10.80;3.55;;;5.00;99.90;;;;;;4955900;28;87671;-36
2022/01/09 08:50:49;;;;;;;13.57;4.47;;;5.00;99.90;;;;;;4955956;28;89814;-37
2022/01/09 08:53:15;;;;;;;9.75;3.75;;;5.00;99.90;;;;;;4955627;28;90382;-39
2022/01/09 08:55:41;;;;;;;8.30;3.42;;;5.00;99.90;;;;;;4955663;28;88306;-42
2022/01/09 08:58:07;;;;;;;12.40;3.38;;;5.00;99.90;;;;;;4954570;28;90208;-37
2022/01/09 09:00:32;;;;;;;6.53;3.60;;;5.00;99.90;;;;;;4952483;28;88655;-37
2022/01/09 09:02:58;;;;;;;10.57;3.78;;;5.10;99.90;;;;;;4947461;28;90010;-35
2022/01/09 09:05:23;;;;;;;18.08;3.53;;;5.20;99.90;;;;;;4922302;28;89765;-44
2022/01/09 09:07:49;;;;;;;8.73;3.60;;;5.20;99.90;;;;;;4946077;28;90833;-41
2022/01/09 09:10:15;;;;;;;17.75;4.18;;;5.20;99.90;;;;;;4942814;28;89568;-43
2022/01/09 09:12:40;;;;;;;12.95;3.83;;;5.20;99.90;;;;;;4954883;28;89900;-38
2022/01/09 09:15:07;;;;;;;10.93;3.80;;;5.20;99.90;;;;;;4954194;28;89076;-42
2022/01/09 09:17:33;;;;;;;13.68;3.20;;;5.20;99.90;;;;;;4945798;28;87691;-42
2022/01/09 09:19:59;;;;;;;10.30;2.85;;;5.30;99.90;;;;;;4932810;28;88614;-41
2022/01/09 09:22:24;;;;;;;10.77;3.25;;;5.30;99.90;;;;;;4953806;28;94611;-41
2022/01/09 09:24:51;;;;;;;14.20;3.83;;;5.30;99.90;;;;;;4954743;28;90571;-42
2022/01/09 09:27:21;;;;;;;8.32;3.63;;;5.40;99.90;;;;;;4959131;28;88054;-40
2022/01/09 09:30:42;;;;;;;9.77;3.70;;;5.40;99.90;;;;;;4934599;28;88200;-37
2022/01/09 09:52:58;;;;;;;12.45;3.58;;;5.60;99.90;;;;;;4963689;27;89064;-44
2022/01/09 09:55:24;;;;;;;12.70;5.07;;;5.70;99.90;;;;;;4944369;28;88068;-43
2022/01/09 09:57:50;;;;;;;10.10;3.88;;;5.70;99.90;;;;;;4788776;28;88695;-41
2022/01/09 10:00:18;;;;;;;8.40;4.00;;;5.70;99.90;;;;;;4943890;28;90408;-46
2022/01/09 10:02:48;;;;;;;12.27;3.65;;;5.70;99.90;;;;;;4941838;28;90030;-45
2022/01/09 10:05:17;;;;;;;12.23;3.97;;;5.70;99.90;;;;;;4938668;28;88649;-41
2022/01/09 10:07:43;;;;;;;14.25;3.72;;;5.70;99.90;;;;;;4959209;28;88744;-44
2022/01/09 10:10:15;;;;;;;13.15;3.58;;;5.70;99.90;;;;;;4965634;28;90363;-41
2022/01/09 10:12:43;;;;;;;9.85;4.10;;;5.70;99.90;;;;;;4965099;28;90216;-42
2022/01/09 10:15:11;;;;;;;12.93;3.78;;;5.70;99.90;;;;;;4964093;28;90153;-45
2022/01/09 10:17:44;;;;;;;;;;;5.70;99.90;;;;;;4964812;28;88457;-40
2022/01/09 10:20:14;;;;;;;12.68;3.30;;;5.70;99.90;;;;;;4966237;28;90601;-41
2022/01/09 10:22:46;;;;;;;9.30;2.95;;;5.70;99.90;;;;;;4964317;28;88970;-44
2022/01/09 10:25:32;;;;;;;11.40;3.13;;;5.80;99.90;;;;;;4964375;28;88277;-39
2022/01/09 10:28:14;;;;;;;8.02;3.28;;;5.90;99.90;;;;;;4965253;28;88518;-40
2022/01/09 10:30:45;;;;;;;11.50;3.85;;;5.90;99.90;;;;;;4833606;28;89213;-42
2022/01/09 10:36:52;;;;;;;13.55;3.95;;;5.90;99.90;;;;;;4967801;28;88780;-46
2022/01/09 10:39:34;;;;;;;8.35;3.13;;;5.90;99.90;;;;;;4953553;28;88155;-42
2022/01/09 10:42:04;;;;;;;6.85;2.97;;;6.00;99.90;;;;;;4960805;28;90328;-44
2022/01/09 10:44:35;;;;;;;8.00;2.65;;;6.00;99.90;;;;;;4963732;28;90093;-45
2022/01/09 10:47:09;;;;;;;7.55;2.92;;;6.00;99.90;;;;;;4963111;28;88979;-40
2022/01/09 10:49:54;;;;;;;12.30;3.15;;;6.00;99.90;;;;;;4963405;28;89583;-41
2022/01/09 10:52:44;;;;;;;7.43;3.60;;;6.00;99.90;;;;;;4971420;28;90567;-42
2022/01/09 10:55:10;;;;;;;6.75;3.05;;;6.00;99.90;;;;;;4956931;28;90836;-42
2022/01/09 10:57:37;;;;;;;6.25;2.20;;;6.00;99.90;;;;;;4965433;28;87607;-46
2022/01/09 11:00:15;;;;;;;12.60;2.90;;;6.00;99.90;;;;;;4965196;28;89252;-44
2022/01/09 11:02:42;;;;;;;5.97;2.65;;;6.00;99.90;;;;;;4960355;28;90393;-44
2022/01/09 11:08:58;;;;;;;11.23;2.45;;;6.00;99.90;;;;;;4961042;28;89488;-42
2022/01/09 11:22:55;;;;;;;8.45;2.90;;;6.20;99.90;;;;;;4945064;28;88750;-39
2022/01/09 11:25:32;;;;;;;5.13;2.10;;;6.30;99.90;;;;;;4949859;28;88401;-43
2022/01/09 11:28:27;;;;;;;4.68;2.65;;;6.30;99.90;;;;;;4948428;28;90359;-40
2022/01/09 11:31:23;;;;;;;4.95;1.98;;;6.30;99.90;;;;;;4947585;28;89638;-43
2022/01/09 11:34:12;;;;;;;6.47;2.45;;;6.40;99.90;;;;;;4956284;28;88551;-45
2022/01/09 11:41:23;;;;;;;9.40;2.78;;;6.40;99.90;;;;;;4955895;28;88712;-43
2022/01/09 11:52:01;;;;;;;5.63;3.50;;;6.70;99.90;;;;;;4937623;28;88622;-44
2022/01/09 11:54:27;;;;;;;6.28;3.00;;;6.80;99.90;;;;;;4942530;28;89495;-41
2022/01/09 11:56:54;;;;;;;9.23;2.72;;;6.90;99.90;;;;;;4951288;28;88459;-41
2022/01/09 12:10:28;;;;;;;7.28;2.75;;;7.20;99.90;;;;;;4948967;28;88233;-43
2022/01/09 12:13:07;;;;;;;10.45;3.25;;;7.30;99.90;;;;;;4954159;28;88529;-44
2022/01/09 12:19:52;;;;;;;14.73;2.42;;;7.40;99.90;;;;;;4950168;28;89852;-44
2022/01/09 12:25:54;;;;;;;11.50;2.95;;;7.20;99.90;;;;;;4946420;28;88725;-45
2022/01/09 12:28:35;;;;;;;13.20;4.00;;;7.20;99.90;;;;;;4858497;28;88805;-44
2022/01/09 12:31:01;;;;;;;5.75;3.08;;;7.10;99.90;;;;;;4927465;28;89654;-41
2022/01/09 12:33:27;;;;;;;9.32;3.28;;;7.10;99.90;;;;;;4930102;28;90296;-41
2022/01/09 12:35:59;;;;;;;11.75;4.10;;;7.10;99.90;;;;;;4930392;28;88689;-43
2022/01/09 12:38:27;;;;;;;7.35;3.58;;;7.10;99.90;;;;;;4928087;28;87566;-42
2022/01/09 12:41:04;;;;;;;14.75;3.70;;;7.10;99.90;;;;;;4930203;28;90352;-46
2022/01/09 12:43:30;;;;;;;10.15;3.50;;;7.10;99.90;;;;;;4929418;28;91201;-40
2022/01/09 12:45:56;;;;;;;10.57;3.00;;;7.10;99.90;;;;;;4930492;28;90051;-46
2022/01/09 12:48:30;;;;;;;9.23;3.00;;;7.00;99.90;;;;;;4929457;28;87762;-47
2022/01/09 12:51:07;;;;;;;6.10;3.45;;;7.10;99.90;;;;;;4929044;28;90109;-44
2022/01/09 12:53:38;;;;;;;12.25;3.63;;;7.10;99.90;;;;;;4927629;28;89331;-42
2022/01/09 12:56:08;;;;;;;7.85;3.58;;;7.10;99.90;;;;;;4928324;28;90575;-45
2022/01/09 12:58:37;;;;;;;12.23;3.97;;;7.10;99.90;;;;;;4919376;28;88057;-42
2022/01/09 13:01:05;;;;;;;8.82;3.95;;;7.10;99.90;;;;;;4928610;28;90704;-45
2022/01/09 13:03:33;;;;;;;11.43;4.45;;;7.10;99.90;;;;;;4929955;28;89318;-46
2022/01/09 13:06:01;;;;;;;13.82;3.70;;;7.10;99.90;;;;;;4930196;28;89117;-44
2022/01/09 13:08:27;;;;;;;14.05;2.95;;;7.10;99.90;;;;;;4928969;28;88540;-43
2022/01/09 13:11:06;;;;;;;18.75;3.72;;;7.10;99.90;;;;;;4928872;28;90199;-41
2022/01/09 13:13:34;;;;;;;12.13;2.70;;;7.20;99.90;;;;;;4929462;28;88427;-39
2022/01/09 13:16:13;;;;;;;15.82;4.55;;;7.20;99.90;;;;;;4929668;28;89908;-44
2022/01/09 13:18:43;;;;;;;22.05;4.78;;;7.10;99.90;;;;;;4929883;28;88289;-43
2022/01/09 13:21:31;;;;;;;14.27;4.10;;;7.20;99.90;;;;;;4928756;28;90167;-47
2022/01/09 13:23:57;;;;;;;;;;;7.20;99.90;;;;;;4929359;28;89642;-47
2022/01/09 13:26:25;;;;;;;15.43;3.47;;;7.30;99.90;;;;;;4928932;28;87551;-39
2022/01/09 13:28:52;;;;;;;14.52;4.13;;;7.30;99.90;;;;;;4928142;28;88064;-43
2022/01/09 13:31:19;;;;;;;19.45;5.20;;;7.30;99.90;;;;;;4928750;28;90718;-38
2022/01/09 13:33:57;;;;;;;22.65;4.63;;;7.40;99.90;;;;;;4927568;28;89226;-44
2022/01/09 13:36:38;;;;;;;11.05;3.80;;;7.40;99.90;;;;;;4928739;28;89009;-43
2022/01/09 13:39:28;;;;;;;7.47;3.22;;;7.40;99.90;;;;;;4928795;28;89610;-46
2022/01/09 13:41:58;;;;;;;13.38;4.05;;;7.40;99.90;;;;;;4928604;28;90380;-41
2022/01/09 13:44:29;;;;;;;9.07;3.33;;;7.40;99.90;;;;;;4888454;28;90640;-41
2022/01/09 13:47:05;;;;;;;16.33;4.05;;;7.30;99.90;;;;;;4947264;28;88968;-41
2022/01/09 13:49:32;;;;;;;9.70;2.90;;;7.30;99.90;;;;;;4950906;28;89966;-40
2022/01/09 13:51:59;;;;;;;10.40;3.70;;;7.30;99.90;;;;;;4952247;28;89272;-44
2022/01/09 13:54:29;;;;;;;8.23;2.70;;;7.30;99.90;;;;;;4947539;28;89789;-44
2022/01/09 13:57:06;;;;;;;13.05;2.83;;;7.20;99.90;;;;;;4960874;28;88693;-43
2022/01/09 13:59:50;;;;;;;10.47;2.80;;;7.10;99.90;;;;;;4960055;28;90293;-41
2022/01/09 14:02:24;;;;;;;8.85;3.10;;;7.10;99.90;;;;;;4962554;28;89544;-41
2022/01/09 14:05:11;;;;;;;7.57;2.67;;;7.10;99.90;;;;;;4960865;28;88553;-45
2022/01/09 14:07:47;;;;;;;7.97;3.13;;;7.20;99.90;;;;;;4956063;28;87934;-47
2022/01/09 14:10:14;;;;;;;7.90;2.88;;;7.10;99.90;;;;;;4950773;28;89228;-41
2022/01/09 14:12:42;;;;;;;16.08;3.97;;;7.10;99.90;;;;;;4940098;28;89946;-42
2022/01/09 14:16:01;;;;;;;11.18;2.42;;;7.00;99.90;;;;;;4942441;28;88967;-43
2022/01/09 14:19:16;;;;;;;6.60;3.28;;;6.90;99.90;;;;;;4959783;28;89587;-44
2022/01/09 14:22:32;;;;;;;7.25;2.85;;;6.80;99.90;;;;;;4949911;28;88421;-40
2022/01/09 14:25:08;;;;;;;7.30;2.30;;;6.70;99.90;;;;;;4937559;28;89332;-47
2022/01/09 14:27:40;;;;;;;10.63;2.72;;;6.60;99.90;;;;;;4936990;28;89691;-46
2022/01/09 14:30:27;;;;;;;10.02;2.45;;;6.60;99.90;;;;;;4937309;28;88335;-37
2022/01/09 14:33:18;;;;;;;5.83;2.13;;;6.50;99.90;;;;;;4937254;28;87563;-45